createdAt,value
2019-03-31T00:01:44.594Z,5.23
2019-03-31T00:04:50.227Z,5.33
2019-03-31T00:07:55.917Z,5.73
2019-03-31T00:11:01.558Z,6.23
2019-03-31T00:14:07.207Z,6.57
2019-03-31T00:17:13.839Z,6.80
2019-03-31T00:20:19.498Z,4.67
2019-03-31T00:23:25.230Z,5.30
2019-03-31T00:26:30.895Z,5.43
2019-03-31T00:29:36.600Z,5.20
2019-03-31T00:32:42.288Z,5.13
2019-03-31T00:35:47.937Z,4.87
2019-03-31T00:38:53.634Z,4.60
2019-03-31T00:41:59.294Z,4.57
2019-03-31T00:45:05.465Z,4.10
2019-03-31T00:48:11.145Z,5.13
2019-03-31T00:51:16.802Z,4.10
2019-03-31T00:54:22.486Z,4.90
2019-03-31T00:57:28.293Z,5.17
2019-03-31T01:01:05.103Z,5.37
2019-03-31T01:04:16.585Z,5.13
2019-03-31T01:07:24.376Z,4.67
2019-03-31T01:10:30.878Z,4.73
2019-03-31T01:13:36.646Z,4.67
2019-03-31T01:16:42.466Z,5.33
2019-03-31T01:19:48.221Z,5.43
2019-03-31T01:22:53.931Z,5.70
2019-03-31T01:26:00.583Z,4.33
2019-03-31T01:29:06.604Z,5.23
2019-03-31T01:32:12.473Z,5.40
2019-03-31T01:35:18.429Z,5.00
2019-03-31T01:38:24.182Z,5.30
2019-03-31T01:41:29.862Z,5.20
2019-03-31T01:44:35.597Z,5.40
2019-03-31T01:47:41.233Z,5.53
2019-03-31T01:50:46.926Z,5.40
2019-03-31T01:53:52.603Z,5.67
2019-03-31T01:56:58.287Z,5.43
2019-03-31T02:00:07.839Z,5.47
2019-03-31T02:03:13.574Z,5.50
2019-03-31T02:06:19.321Z,5.53
2019-03-31T02:09:24.992Z,4.97
2019-03-31T02:12:30.714Z,5.47
2019-03-31T02:15:36.406Z,5.50
2019-03-31T02:18:42.083Z,6.00
2019-03-31T02:21:47.794Z,5.67
2019-03-31T02:24:53.548Z,5.77
2019-03-31T02:27:59.547Z,5.60
2019-03-31T02:31:05.202Z,5.50
2019-03-31T02:34:10.906Z,5.87
2019-03-31T02:37:16.548Z,5.27
2019-03-31T02:40:22.186Z,5.07
2019-03-31T02:43:27.899Z,5.80
2019-03-31T02:46:33.559Z,5.43
2019-03-31T02:49:39.170Z,5.63
2019-03-31T02:52:44.790Z,5.33
2019-03-31T02:55:51.575Z,5.27
2019-03-31T02:59:00.618Z,5.50
2019-03-31T03:02:06.373Z,5.60
2019-03-31T03:05:19.663Z,5.40
2019-03-31T03:08:22.526Z,5.17
2019-03-31T03:11:30.104Z,5.30
2019-03-31T03:14:38.230Z,5.57
2019-03-31T03:17:43.904Z,5.27
2019-03-31T03:20:49.578Z,5.53
2019-03-31T03:23:55.306Z,5.30
2019-03-31T03:27:00.973Z,6.90
2019-03-31T03:30:07.030Z,5.80
2019-03-31T03:33:16.276Z,6.10
2019-03-31T03:36:20.032Z,5.93
2019-03-31T03:39:25.701Z,5.50
2019-03-31T03:42:31.440Z,5.90
2019-03-31T03:45:37.102Z,5.77
2019-03-31T03:48:42.770Z,5.70
2019-03-31T03:51:48.590Z,5.90
2019-03-31T03:54:54.208Z,5.63
2019-03-31T03:57:59.928Z,5.90
2019-03-31T04:01:13.308Z,6.10
2019-03-31T04:04:19.070Z,6.00
2019-03-31T04:07:24.784Z,6.20
2019-03-31T04:11:20.660Z,6.23
2019-03-31T04:14:23.475Z,7.03
2019-03-31T04:17:29.215Z,7.77
2019-03-31T04:20:39.143Z,6.43
2019-03-31T04:23:42.305Z,6.00
2019-03-31T04:26:47.999Z,6.20
2019-03-31T04:29:53.681Z,6.07
2019-03-31T04:32:59.350Z,5.73
2019-03-31T04:36:05.058Z,6.27
2019-03-31T04:39:10.773Z,5.57
2019-03-31T04:42:16.521Z,5.70
2019-03-31T04:45:22.190Z,6.20
2019-03-31T04:48:27.831Z,6.40
2019-03-31T04:51:33.471Z,6.70
2019-03-31T04:54:39.140Z,5.47
2019-03-31T04:57:44.774Z,6.10
2019-03-31T05:00:50.525Z,5.53
2019-03-31T05:04:04.406Z,5.17
2019-03-31T05:07:03.567Z,5.57
2019-03-31T05:10:09.376Z,5.23
2019-03-31T05:13:15.100Z,6.03
2019-03-31T05:16:20.806Z,5.10
2019-03-31T05:19:26.447Z,5.37
2019-03-31T05:22:32.144Z,5.60
2019-03-31T05:25:37.746Z,4.93
2019-03-31T05:28:44.299Z,5.00
2019-03-31T05:31:50.062Z,5.60
2019-03-31T05:34:55.730Z,4.90
2019-03-31T05:38:01.401Z,5.07
2019-03-31T05:41:07.072Z,5.63
2019-03-31T05:44:12.797Z,5.00
2019-03-31T05:47:18.486Z,5.27
2019-03-31T05:50:24.164Z,5.73
2019-03-31T05:53:29.794Z,5.83
2019-03-31T05:56:35.533Z,6.10
2019-03-31T05:59:41.300Z,6.27
2019-03-31T06:02:46.942Z,6.00
2019-03-31T06:05:52.681Z,6.10
2019-03-31T06:08:58.321Z,6.67
2019-03-31T06:12:04.109Z,6.60
2019-03-31T06:15:09.896Z,6.80
2019-03-31T06:18:15.577Z,5.97
2019-03-31T06:21:21.229Z,6.27
2019-03-31T06:24:26.898Z,6.37
2019-03-31T06:27:33.558Z,5.70
2019-03-31T06:30:39.259Z,6.20
2019-03-31T06:33:44.908Z,5.70
2019-03-31T06:36:50.621Z,5.83
2019-03-31T06:39:56.323Z,5.10
2019-03-31T06:43:02.028Z,5.10
2019-03-31T06:46:07.714Z,5.47
2019-03-31T06:49:13.399Z,5.60
2019-03-31T06:52:19.125Z,5.60
2019-03-31T06:55:24.785Z,6.37
2019-03-31T06:58:30.446Z,8.17
2019-03-31T07:01:36.193Z,4.97
2019-03-31T07:04:41.938Z,5.57
2019-03-31T07:07:47.657Z,4.90
2019-03-31T07:10:53.901Z,5.80
2019-03-31T07:13:59.678Z,5.20
2019-03-31T07:17:05.351Z,5.67
2019-03-31T07:20:12.349Z,5.80
2019-03-31T07:23:18.029Z,6.93
2019-03-31T07:26:23.724Z,6.70
2019-03-31T07:29:29.414Z,6.33
2019-03-31T07:32:35.108Z,6.10
2019-03-31T07:35:40.809Z,5.50
2019-03-31T07:38:46.455Z,5.93
2019-03-31T07:41:52.481Z,5.63
2019-03-31T07:44:58.223Z,5.70
2019-03-31T07:48:03.940Z,5.63
2019-03-31T07:51:09.595Z,5.23
2019-03-31T07:54:16.275Z,5.80
2019-03-31T07:57:21.960Z,5.67
2019-03-31T08:00:27.604Z,5.97
2019-03-31T08:03:33.291Z,5.47
2019-03-31T08:06:38.976Z,5.53
2019-03-31T08:09:44.664Z,5.40
2019-03-31T08:12:50.378Z,5.07
2019-03-31T08:15:56.065Z,5.73
2019-03-31T08:19:01.804Z,5.97
2019-03-31T08:22:07.509Z,5.10
2019-03-31T08:25:14.065Z,5.73
2019-03-31T08:28:19.697Z,6.30
2019-03-31T08:31:25.454Z,5.80
2019-03-31T08:34:31.096Z,6.13
2019-03-31T08:37:36.914Z,5.97
2019-03-31T08:40:42.620Z,6.73
2019-03-31T08:43:48.372Z,6.20
2019-03-31T08:46:54.009Z,7.00
2019-03-31T08:50:02.178Z,6.47
2019-03-31T08:53:07.099Z,6.67
2019-03-31T08:56:12.775Z,6.77
2019-03-31T08:59:18.414Z,7.17
2019-03-31T09:02:26.431Z,7.33
2019-03-31T09:05:32.182Z,8.40
2019-03-31T09:08:37.852Z,8.67
2019-03-31T09:11:43.598Z,10.00
2019-03-31T09:14:49.256Z,9.00
2019-03-31T09:17:54.985Z,9.80
2019-03-31T09:21:00.746Z,10.10
2019-03-31T09:24:06.580Z,10.33
2019-03-31T09:27:12.296Z,11.03
2019-03-31T09:30:18.627Z,12.13
2019-03-31T09:33:24.285Z,12.70
2019-03-31T09:36:29.964Z,13.57
2019-03-31T09:39:35.678Z,13.63
2019-03-31T09:42:41.548Z,13.47
2019-03-31T09:45:47.268Z,13.97
2019-03-31T09:48:52.958Z,14.70
2019-03-31T09:51:58.641Z,13.87
2019-03-31T09:55:04.458Z,14.07
2019-03-31T09:58:10.118Z,16.97
2019-03-31T10:01:15.840Z,13.50
2019-03-31T10:04:21.566Z,14.20
2019-03-31T10:07:27.786Z,15.17
2019-03-31T10:10:33.952Z,14.90
2019-03-31T10:13:39.652Z,15.67
2019-03-31T10:16:45.363Z,14.33
2019-03-31T10:19:51.057Z,13.70
2019-03-31T10:22:56.778Z,14.70
2019-03-31T10:26:02.454Z,13.20
2019-03-31T10:29:08.123Z,11.67
2019-03-31T10:32:13.856Z,11.70
2019-03-31T10:35:19.546Z,11.17
2019-03-31T10:38:25.254Z,13.10
2019-03-31T10:41:31.171Z,13.07
2019-03-31T10:44:37.025Z,11.53
2019-03-31T10:47:42.825Z,10.83
2019-03-31T10:50:48.537Z,11.83
2019-03-31T10:53:54.210Z,10.87
2019-03-31T10:56:59.901Z,10.37
2019-03-31T11:00:06.613Z,10.90
2019-03-31T11:03:12.286Z,11.23
2019-03-31T11:06:18.090Z,10.53
2019-03-31T11:09:23.808Z,10.00
2019-03-31T11:12:29.603Z,9.77
2019-03-31T11:15:35.276Z,10.87
2019-03-31T11:18:40.964Z,10.20
2019-03-31T11:22:08.311Z,9.37
2019-03-31T11:25:21.099Z,10.47
2019-03-31T11:28:21.533Z,9.57
2019-03-31T11:31:27.267Z,9.13
2019-03-31T11:34:32.948Z,9.63
2019-03-31T11:37:38.677Z,9.17
2019-03-31T11:40:44.378Z,9.57
2019-03-31T11:43:51.180Z,9.77
2019-03-31T11:46:56.879Z,7.53
2019-03-31T11:50:02.594Z,6.77
2019-03-31T11:53:08.258Z,6.77
2019-03-31T11:56:14.002Z,6.40
2019-03-31T11:59:21.044Z,6.50
2019-03-31T12:02:27.829Z,6.47
2019-03-31T12:05:33.759Z,6.70
2019-03-31T12:08:39.468Z,6.63
2019-03-31T12:11:45.796Z,6.83
2019-03-31T12:15:00.391Z,6.47
2019-03-31T12:17:59.133Z,6.80
2019-03-31T12:21:04.786Z,5.67
2019-03-31T12:24:11.480Z,15.80
2019-03-31T12:27:17.188Z,7.47
2019-03-31T12:30:28.819Z,9.40
2019-03-31T12:33:34.530Z,6.80
2019-03-31T12:36:40.234Z,6.30
2019-03-31T12:39:46.030Z,5.87
2019-03-31T12:42:51.793Z,6.17
2019-03-31T12:45:57.548Z,5.33
2019-03-31T12:49:03.292Z,5.63
2019-03-31T12:52:08.958Z,5.50
2019-03-31T12:55:14.624Z,6.20
2019-03-31T12:58:21.409Z,6.30
2019-03-31T13:01:27.101Z,6.17
2019-03-31T13:04:32.745Z,6.00
2019-03-31T13:07:38.436Z,5.80
2019-03-31T13:10:44.110Z,6.23
2019-03-31T13:13:49.814Z,6.70
2019-03-31T13:16:55.528Z,6.60
2019-03-31T13:20:01.191Z,5.77
2019-03-31T13:23:06.979Z,6.23
2019-03-31T13:26:12.750Z,5.97
2019-03-31T13:29:18.422Z,6.27
2019-03-31T13:32:24.110Z,5.40
2019-03-31T13:35:29.805Z,5.63
2019-03-31T13:38:35.485Z,6.20
2019-03-31T13:41:41.153Z,5.17
2019-03-31T13:44:46.870Z,10.13
2019-03-31T13:47:52.530Z,8.73
2019-03-31T13:50:58.192Z,7.93
2019-03-31T13:54:03.942Z,8.23
2019-03-31T13:57:10.369Z,7.27
2019-03-31T14:00:26.536Z,8.93
2019-03-31T14:03:30.555Z,8.53
2019-03-31T14:06:36.338Z,9.70
2019-03-31T14:09:42.028Z,9.07
2019-03-31T14:12:47.767Z,10.30
2019-03-31T14:15:53.473Z,8.90
2019-03-31T14:18:59.249Z,9.37
2019-03-31T14:22:04.972Z,9.70
2019-03-31T14:25:10.623Z,8.80
2019-03-31T14:28:16.304Z,9.63
2019-03-31T14:31:22.052Z,10.40
2019-03-31T14:34:27.826Z,8.23
2019-03-31T14:37:33.563Z,9.33
2019-03-31T14:40:39.247Z,7.43
2019-03-31T14:43:44.960Z,8.43
2019-03-31T14:46:50.692Z,7.40
2019-03-31T14:49:56.340Z,8.10
2019-03-31T14:53:02.044Z,8.57
2019-03-31T14:56:07.770Z,8.97
2019-03-31T14:59:13.516Z,8.90
2019-03-31T15:02:19.214Z,8.93
2019-03-31T15:05:24.908Z,9.57
2019-03-31T15:08:30.745Z,9.40
2019-03-31T15:11:36.443Z,9.97
2019-03-31T15:14:42.147Z,9.90
2019-03-31T15:17:47.960Z,9.93
2019-03-31T15:20:54.594Z,7.70
2019-03-31T15:24:00.308Z,9.17
2019-03-31T15:27:06.015Z,9.20
2019-03-31T15:30:11.932Z,7.93
2019-03-31T15:33:17.654Z,9.57
2019-03-31T15:36:23.334Z,8.93
2019-03-31T15:39:29.129Z,9.10
2019-03-31T15:42:34.907Z,9.77
2019-03-31T15:45:41.700Z,10.13
2019-03-31T15:48:47.349Z,9.60
2019-03-31T15:51:53.047Z,9.17
2019-03-31T15:54:58.770Z,9.47
2019-03-31T15:58:05.445Z,10.73
2019-03-31T16:01:12.242Z,11.87
2019-03-31T16:04:18.054Z,13.83
2019-03-31T16:07:23.775Z,14.73
2019-03-31T16:10:29.048Z,16.90
2019-03-31T16:13:34.252Z,16.57
2019-03-31T16:16:39.373Z,17.00
2019-03-31T16:19:44.592Z,19.10
2019-03-31T16:22:49.710Z,18.97
2019-03-31T16:25:57.119Z,17.63
2019-03-31T16:29:03.362Z,17.80
2019-03-31T16:32:08.611Z,18.40
2019-03-31T16:35:13.941Z,18.90
2019-03-31T16:38:19.038Z,17.93
2019-03-31T16:41:24.186Z,18.00
2019-03-31T16:44:29.414Z,19.97
2019-03-31T16:47:34.545Z,19.33
2019-03-31T16:50:39.715Z,19.03
2019-03-31T16:53:45.018Z,19.97
2019-03-31T16:56:50.301Z,19.37
2019-03-31T16:59:55.440Z,19.83
2019-03-31T17:03:00.569Z,22.57
2019-03-31T17:06:05.711Z,20.33
2019-03-31T17:09:10.934Z,20.13
2019-03-31T17:12:16.200Z,19.67
2019-03-31T17:15:21.422Z,21.57
2019-03-31T17:18:26.798Z,20.63
2019-03-31T17:21:32.099Z,21.03
2019-03-31T17:24:37.224Z,23.20
2019-03-31T17:27:42.367Z,24.27
2019-03-31T17:30:47.751Z,22.87
2019-03-31T17:33:52.955Z,23.30
2019-03-31T17:36:58.253Z,21.73
2019-03-31T17:40:06.397Z,23.60
2019-03-31T17:43:10.639Z,24.23
2019-03-31T17:46:16.007Z,24.47
2019-03-31T17:49:21.138Z,22.23
2019-03-31T17:52:26.343Z,23.10
2019-03-31T17:55:31.512Z,23.60
2019-03-31T17:58:36.701Z,24.03
2019-03-31T18:01:41.890Z,23.40
2019-03-31T18:04:47.034Z,23.93
2019-03-31T18:07:52.239Z,24.40
2019-03-31T18:10:57.404Z,23.13
2019-03-31T18:14:02.575Z,26.17
2019-03-31T18:17:07.781Z,24.77
2019-03-31T18:20:12.879Z,26.00
2019-03-31T18:23:18.098Z,25.87
2019-03-31T18:26:23.377Z,31.33
2019-03-31T18:29:28.632Z,25.80
2019-03-31T18:32:33.790Z,28.20
2019-03-31T18:35:38.936Z,26.83
2019-03-31T18:38:44.127Z,26.50
2019-03-31T18:41:49.580Z,25.67
2019-03-31T18:44:54.849Z,25.70
2019-03-31T18:48:01.270Z,26.40
2019-03-31T18:51:06.644Z,29.00
2019-03-31T18:54:25.782Z,28.13
2019-03-31T18:57:38.799Z,26.23
2019-03-31T19:01:03.099Z,25.63
2019-03-31T19:04:27.060Z,27.00
2019-03-31T19:07:42.611Z,26.57
2019-03-31T19:11:05.030Z,26.00
2019-03-31T19:14:29.244Z,26.00
2019-03-31T19:17:53.476Z,25.47
2019-03-31T19:21:23.652Z,25.27
2019-03-31T19:24:37.631Z,25.60
2019-03-31T19:27:53.311Z,26.13
2019-03-31T19:31:07.211Z,24.13
2019-03-31T19:34:43.554Z,23.90
2019-03-31T19:38:06.575Z,24.37
2019-03-31T19:41:49.048Z,25.07
2019-03-31T19:45:13.280Z,24.30
2019-03-31T19:48:34.580Z,24.33
2019-03-31T19:51:48.316Z,23.63
2019-03-31T19:55:15.379Z,24.10
2019-03-31T19:58:42.022Z,23.50
2019-03-31T20:02:11.943Z,23.53
2019-03-31T20:05:39.349Z,24.93
2019-03-31T20:09:02.390Z,28.32
2019-03-31T20:12:27.051Z,24.07
2019-03-31T20:15:50.286Z,24.37
2019-03-31T20:19:20.658Z,23.27
2019-03-31T20:22:39.304Z,23.57
2019-03-31T20:25:52.127Z,23.13
2019-03-31T20:29:05.888Z,23.73
2019-03-31T20:32:42.113Z,24.03
2019-03-31T20:36:15.133Z,23.60
2019-03-31T20:39:56.647Z,24.00
2019-03-31T20:43:26.596Z,24.77
2019-03-31T20:46:31.860Z,25.90
2019-03-31T20:49:36.958Z,24.67
2019-03-31T20:52:43.175Z,24.30
2019-03-31T20:55:48.420Z,22.70
2019-03-31T20:58:53.624Z,22.70
2019-03-31T21:01:58.876Z,22.90
2019-03-31T21:05:04.156Z,22.30
2019-03-31T21:08:09.299Z,23.23
2019-03-31T21:11:14.512Z,22.70
2019-03-31T21:14:19.715Z,22.10
2019-03-31T21:17:24.919Z,23.30
2019-03-31T21:20:30.118Z,22.97
2019-03-31T21:23:35.351Z,22.90
2019-03-31T21:26:41.620Z,24.47
2019-03-31T21:29:46.874Z,22.67
2019-03-31T21:32:51.994Z,23.67
2019-03-31T21:35:57.116Z,23.80
2019-03-31T21:39:02.293Z,24.10
2019-03-31T21:42:09.372Z,22.13
2019-03-31T21:45:15.603Z,22.83
2019-03-31T21:48:20.786Z,21.70
2019-03-31T21:51:25.948Z,21.23
2019-03-31T21:54:31.088Z,21.73
2019-03-31T21:57:36.387Z,20.70
2019-03-31T22:00:51.694Z,22.00
2019-03-31T22:03:58.199Z,21.73
2019-03-31T22:07:03.481Z,20.73
2019-03-31T22:10:08.983Z,20.93
2019-03-31T22:13:14.131Z,20.43
2019-03-31T22:16:19.440Z,20.97
2019-03-31T22:19:24.663Z,21.10
2019-03-31T22:22:29.826Z,20.50
2019-03-31T22:25:34.987Z,19.70
2019-03-31T22:28:40.181Z,19.13
2019-03-31T22:31:45.344Z,20.07
2019-03-31T22:34:50.572Z,20.57
2019-03-31T22:37:55.834Z,21.43
2019-03-31T22:41:01.023Z,19.57
2019-03-31T22:44:06.327Z,20.17
2019-03-31T22:47:11.578Z,19.03
2019-03-31T22:50:17.873Z,20.23
2019-03-31T22:53:23.157Z,20.50
2019-03-31T22:56:28.265Z,18.77
2019-03-31T22:59:33.399Z,19.53
2019-03-31T23:02:38.683Z,19.20
2019-03-31T23:05:43.883Z,20.10
2019-03-31T23:08:49.021Z,17.90
2019-03-31T23:11:54.129Z,19.47
2019-03-31T23:14:59.545Z,18.80
2019-03-31T23:18:04.822Z,19.50
2019-03-31T23:21:09.910Z,19.50
2019-03-31T23:24:15.065Z,19.97
2019-03-31T23:27:20.211Z,19.67
2019-03-31T23:30:25.376Z,20.03
2019-03-31T23:33:30.636Z,18.80
2019-03-31T23:36:35.929Z,20.13
2019-03-31T23:39:41.113Z,20.73
2019-03-31T23:42:46.217Z,19.27
2019-03-31T23:45:51.366Z,19.40
2019-03-31T23:48:56.640Z,18.50
2019-03-31T23:52:01.872Z,19.37
2019-03-31T23:55:07.083Z,18.53
2019-03-31T23:58:12.200Z,18.33
